地図

経路データ

SID SEASON NUMBER BASIN SUBBASIN NAME ISO_TIME NATURE LAT LON WMO_WIND WMO_PRES WMO_AGENCY TRACK_TYPE DIST2LAND LANDFALL IFLAG USA_AGENCY USA_ATCF_ID USA_LAT USA_LON USA_RECORD USA_STATUS USA_WIND USA_PRES USA_SSHS USA_R34_NE USA_R34_SE USA_R34_SW USA_R34_NW USA_R50_NE USA_R50_SE USA_R50_SW USA_R50_NW USA_R64_NE USA_R64_SE USA_R64_SW USA_R64_NW USA_POCI USA_ROCI USA_RMW USA_EYE TOKYO_LAT TOKYO_LON TOKYO_GRADE TOKYO_WIND TOKYO_PRES TOKYO_R50_DIR TOKYO_R50_LONG TOKYO_R50_SHORT TOKYO_R30_DIR TOKYO_R30_LONG TOKYO_R30_SHORT TOKYO_LAND CMA_LAT CMA_LON CMA_CAT CMA_WIND CMA_PRES HKO_LAT HKO_LON HKO_CAT HKO_WIND HKO_PRES NEWDELHI_LAT NEWDELHI_LON NEWDELHI_GRADE NEWDELHI_WIND NEWDELHI_PRES NEWDELHI_CI NEWDELHI_DP NEWDELHI_POCI REUNION_LAT REUNION_LON REUNION_TYPE REUNION_WIND REUNION_PRES REUNION_TNUM REUNION_CI REUNION_RMW REUNION_R34_NE REUNION_R34_SE REUNION_R34_SW REUNION_R34_NW REUNION_R50_NE REUNION_R50_SE REUNION_R50_SW REUNION_R50_NW REUNION_R64_NE REUNION_R64_SE REUNION_R64_SW REUNION_R64_NW BOM_LAT BOM_LON BOM_TYPE BOM_WIND BOM_PRES BOM_TNUM BOM_CI BOM_RMW BOM_R34_NE BOM_R34_SE BOM_R34_SW BOM_R34_NW BOM_R50_NE BOM_R50_SE BOM_R50_SW BOM_R50_NW BOM_R64_NE BOM_R64_SE BOM_R64_SW BOM_R64_NW BOM_ROCI BOM_POCI BOM_EYE BOM_POS_METHOD BOM_PRES_METHOD NADI_LAT NADI_LON NADI_CAT NADI_WIND NADI_PRES WELLINGTON_LAT WELLINGTON_LON WELLINGTON_WIND WELLINGTON_PRES DS824_LAT DS824_LON DS824_STAGE DS824_WIND DS824_PRES TD9636_LAT TD9636_LON TD9636_STAGE TD9636_WIND TD9636_PRES TD9635_LAT TD9635_LON TD9635_WIND TD9635_PRES TD9635_ROCI NEUMANN_LAT NEUMANN_LON NEUMANN_CLASS NEUMANN_WIND NEUMANN_PRES MLC_LAT MLC_LON MLC_CLASS MLC_WIND MLC_PRES USA_GUST BOM_GUST BOM_GUST_PER REUNION_GUST REUNION_GUST_PER USA_SEAHGT USA_SEARAD_NE USA_SEARAD_SE USA_SEARAD_SW USA_SEARAD_NW STORM_SPEED STORM_DIR
1992057S17052 1992 19 SI MM NOT_NAMED 1992-02-26 00:00:00 TS -17.0000 51.9000 20 1006 reunion spur-merge 213 213 _____O________ -1 -17.0000 51.9000 2 20 1006 9.90000 1.50000 2 97
1992057S17052 1992 19 SI MM NOT_NAMED 1992-02-26 03:00:00 TS -17.0125 51.9975 spur-merge 222 222 _____P________ -1 -17.0125 51.9975 2 20 1006 2 90
1992057S17052 1992 19 SI MM NOT_NAMED 1992-02-26 06:00:00 TS -17.0000 52.1000 20 1006 reunion spur-merge 231 231 _____O________ -1 -17.0000 52.1000 2 20 1006 9.90000 1.50000 2 73
1992057S17052 1992 19 SI MM NOT_NAMED 1992-02-26 09:00:00 TS -16.9500 52.2075 spur-merge 240 235 _____P________ -1 -16.9500 52.2075 2 20 1004 2 62
1992057S17052 1992 19 SI MM NOT_NAMED 1992-02-26 12:00:00 TS -16.9000 52.3000 20 1003 reunion spur-merge 245 245 _____O________ -1 -16.9000 52.3000 2 20 1003 9.90000 1.50000 1 70
1992057S17052 1992 19 SI MM NOT_NAMED 1992-02-26 15:00:00 TS -16.9000 52.3500 spur-merge 245 245 _____P________ -1 -16.9000 52.3500 2 20 1003 1 90
1992057S17052 1992 19 SI MM NOT_NAMED 1992-02-26 18:00:00 TS -16.9000 52.4000 20 1003 reunion spur-merge 255 255 _____O________ -1 -16.9000 52.4000 2 20 1003 9.90000 1.50000 1 78
1992057S17052 1992 19 SI MM NOT_NAMED 1992-02-26 21:00:00 TS -16.8725 52.4850 spur-merge 265 260 _____P________ -1 -16.8725 52.4850 2 22 1001 2 62
1992057S17052 1992 19 SI MM NOT_NAMED 1992-02-27 00:00:00 TS -16.8000 52.6000 24 1000 reunion spur-merge 269 269 _____O________ -1 -16.8000 52.6000 2 24 1000 9.90000 2.00000 3 50
1992057S17052 1992 19 SI MM NOT_NAMED 1992-02-27 03:00:00 TS -16.6725 52.7350 spur-merge 274 274 _____P________ -1 -16.6725 52.7350 2 24 1000 4 44
1992057S17052 1992 19 SI MM NOT_NAMED 1992-02-27 06:00:00 TS -16.5000 52.9000 24 1000 reunion spur-merge 284 284 _____O________ -1 -16.5000 52.9000 2 24 1000 9.90000 2.00000 5 43
1992057S17052 1992 19 SI MM NOT_NAMED 1992-02-27 09:00:00 TS -16.3224 53.0774 spur-merge 295 295 _____P________ -1 -16.3224 53.0774 2 24 1000 6 44
1992057S17052 1992 19 SI MM NOT_NAMED 1992-02-27 12:00:00 TS -16.1000 53.3000 24 1000 reunion spur-merge 309 309 _____O________ -1 -16.1000 53.3000 2 24 1000 9.90000 2.00000 7 43
1992057S17052 1992 19 SI MM NOT_NAMED 1992-02-27 15:00:00 TS -15.8074 53.5700 spur-merge 335 333 _____P________ -1 -15.8074 53.5700 2 24 999 8 44
1992057S17052 1992 19 SI MM NOT_NAMED 1992-02-27 18:00:00 TS -15.5000 53.9000 25 999 reunion spur-merge 364 364 _____O________ -1 -15.5000 53.9000 2 25 999 9.90000 2.00000 9 51
1992057S17052 1992 19 SI MM NOT_NAMED 1992-02-27 21:00:00 TS -15.2500 54.2849 spur-merge 407 407 _____P________ -1 -15.2500 54.2849 2 26 998 9 57
1992057S17052 1992 19 SI MM NOT_NAMED 1992-02-28 00:00:00 TS -15.0000 54.7000 28 997 reunion spur-merge 451 451 _____O________ -1 -15.0000 54.7000 2 28 997 9.90000 2.50000 10 54
1992057S17052 1992 19 SI MM NOT_NAMED 1992-02-28 03:00:00 TS -14.6924 55.0925 spur-merge 497 497 _____P________ -1 -14.6924 55.0925 2 28 997 10 52
1992057S17052 1992 19 SI MM NOT_NAMED 1992-02-28 06:00:00 TS -14.4000 55.5000 28 997 reunion spur-merge 545 545 _____O________ -1 -14.4000 55.5000 2 28 997 9.90000 2.50000 9 56
1992057S17052 1992 19 SI MM NOT_NAMED 1992-02-28 09:00:00 TS -14.1770 55.8823 spur-merge 591 591 _____P________ -1 -14.1770 55.8823 2 28 997 10 65
1992057S17052 1992 19 SI MM NOT_NAMED 1992-02-28 12:00:00 TS -14.0000 56.4000 28 997 reunion spur-merge 649 649 _____O________ -1 -14.0000 56.4000 2 28 997 9.90000 2.50000 13 74
1992057S17052 1992 19 SI MM NOT_NAMED 1992-02-28 15:00:00 TS -13.8125 57.1678 spur-merge 705 705 _____P________ -1 -13.8125 57.1678 2 29 996 17 80
1992057S17052 1992 19 SI MM NOT_NAMED 1992-02-28 18:00:00 TS -13.7000 58.1000 31 995 reunion spur-merge 717 717 _____O________ -1 -13.7000 58.1000 2 31 995 9.90000 2.50000 19 85
1992057S17052 1992 19 SI MM NOT_NAMED 1992-02-28 21:00:00 TS -13.6452 59.1080 spur-merge 742 736 _____P________ -1 -13.6452 59.1080 2 31 995 19 93
1992057S17052 1992 19 SI MM NOT_NAMED 1992-02-29 00:00:00 TS -13.8000 60.1000 31 995 reunion spur-merge 749 737 _____O________ -1 -13.8000 60.1000 2 31 995 9.90000 2.50000 19 108
1992057S17052 1992 19 SI MM NOT_NAMED 1992-02-29 03:00:00 TS -14.2448 60.9671 spur-merge 747 720 _____P________ -1 -14.2448 60.9671 2 31 995 19 125
1992057S17052 1992 19 SI MM NOT_NAMED 1992-02-29 06:00:00 TS -14.9000 61.7000 31 995 reunion spur-merge 720 707 _____O________ -1 -14.9000 61.7000 2 31 995 9.90000 2.50000 20 135
1992057S17052 1992 19 SI MM NOT_NAMED 1992-02-29 09:00:00 TS -15.6275 62.3917 spur-merge 707 679 _____P________ -1 -15.6351 62.2896 2 31 995 18 145
1992057S17052 1992 19 SI MM NOT_NAMED 1992-02-29 12:00:00 TS -16.4000 62.8000 31 995 reunion spur-merge 679 633 _____O________ -1 -16.4000 62.8000 2 31 995 9.90000 2.50000 16 165
1992057S17052 1992 19 SI MM NOT_NAMED 1992-02-29 15:00:00 TS -17.1295 62.8155 spur-merge 633 ______________ -1 2 15 180

IBTrACS Databaseについて

本データベースは、米国NOAAが公開する1842年以降の世界の熱帯低気圧のベストトラックデータアーカイブInternational Best Track Archive for Climate Stewardship (IBTrACS)を、ウェブで閲覧しやすい形式に変換したものです。

最終更新日:2021-12-01